createdAt,value
2022-11-06T00:00:04.799Z,43.20
2022-11-06T00:01:10.685Z,43.30
2022-11-06T00:02:22.240Z,43.30
2022-11-06T00:03:25.810Z,43.30
2022-11-06T00:04:30.362Z,43.20
2022-11-06T00:05:53.702Z,43.30
2022-11-06T00:06:59.210Z,43.30
2022-11-06T00:08:03.746Z,43.30
2022-11-06T00:09:08.798Z,43.30
2022-11-06T00:10:11.708Z,43.30
2022-11-06T00:11:17.689Z,43.30
2022-11-06T00:12:23.838Z,43.30
2022-11-06T00:13:26.437Z,43.20
2022-11-06T00:14:28.926Z,43.30
2022-11-06T00:15:35.460Z,43.20
2022-11-06T00:16:59.911Z,43.30
2022-11-06T00:18:05.553Z,43.20
2022-11-06T00:19:27.415Z,43.20
2022-11-06T00:20:32.469Z,43.30
2022-11-06T00:21:36.749Z,43.30
2022-11-06T00:22:40.892Z,43.30
2022-11-06T00:23:45.583Z,43.30
2022-11-06T00:24:54.352Z,43.30
2022-11-06T00:26:08.673Z,43.30
2022-11-06T00:27:12.683Z,43.30
2022-11-06T00:28:16.593Z,43.30
2022-11-06T00:29:40.230Z,43.30
2022-11-06T00:30:47.325Z,43.30
2022-11-06T00:31:57.765Z,43.20
2022-11-06T00:33:00.504Z,43.80
2022-11-06T00:34:09.317Z,43.20
2022-11-06T00:35:16.778Z,43.30
2022-11-06T00:36:23.715Z,43.30
2022-11-06T00:37:26.192Z,43.30
2022-11-06T00:38:28.714Z,43.30
2022-11-06T00:39:31.276Z,43.30
2022-11-06T00:40:36.504Z,43.30
2022-11-06T00:41:38.987Z,43.30
2022-11-06T00:42:45.693Z,43.30
2022-11-06T00:44:00.540Z,43.30
2022-11-06T00:45:17.566Z,43.30
2022-11-06T00:46:23.549Z,43.30
2022-11-06T00:47:26.153Z,43.30
2022-11-06T00:48:31.990Z,43.30
2022-11-06T00:49:34.732Z,43.30
2022-11-06T00:51:58.201Z,43.30
2022-11-06T00:53:08.344Z,43.30
2022-11-06T00:54:14.615Z,43.30
2022-11-06T00:55:36.712Z,43.30
2022-11-06T00:56:40.316Z,43.30
2022-11-06T00:57:43.010Z,43.30
2022-11-06T00:58:49.379Z,43.20
2022-11-06T01:00:12.983Z,43.30
2022-11-06T01:01:27.498Z,43.30
2022-11-06T01:02:30.869Z,43.30
2022-11-06T01:03:33.442Z,43.30
2022-11-06T01:04:38.827Z,43.30
2022-11-06T01:05:44.279Z,43.30
2022-11-06T01:06:52.911Z,43.30
2022-11-06T01:07:58.605Z,43.30
2022-11-06T01:09:06.306Z,43.30
2022-11-06T01:10:29.707Z,43.30
2022-11-06T01:11:59.496Z,43.30
2022-11-06T01:12:59.214Z,43.30
2022-11-06T01:14:04.979Z,43.30
2022-11-06T01:15:08.889Z,43.30
2022-11-06T01:16:14.677Z,43.30
2022-11-06T01:17:17.462Z,43.30
2022-11-06T01:18:20.200Z,43.30
2022-11-06T01:19:24.385Z,43.30
2022-11-06T01:20:46.314Z,43.30
2022-11-06T01:21:52.836Z,43.30
2022-11-06T01:22:55.323Z,43.30
2022-11-06T01:24:01.118Z,43.30
2022-11-06T01:25:19.546Z,43.30
2022-11-06T01:26:58.492Z,43.30
2022-11-06T01:28:05.524Z,43.30
2022-11-06T01:29:11.637Z,43.30
2022-11-06T01:30:16.839Z,43.30
2022-11-06T01:31:22.922Z,43.30
2022-11-06T01:32:26.017Z,43.30
2022-11-06T01:33:29.582Z,43.30
2022-11-06T01:34:33.633Z,43.30
2022-11-06T01:35:47.526Z,43.30
2022-11-06T01:36:50.302Z,43.30
2022-11-06T01:37:53.490Z,43.30
2022-11-06T01:38:58.441Z,43.30
2022-11-06T01:40:09.570Z,43.30
2022-11-06T01:41:20.701Z,43.30
2022-11-06T01:42:25.938Z,43.30
2022-11-06T01:43:54.850Z,43.30
2022-11-06T01:45:26.374Z,43.30
2022-11-06T01:46:35.764Z,43.30
2022-11-06T01:47:38.412Z,43.30
2022-11-06T01:48:44.220Z,43.30
2022-11-06T01:49:52.758Z,43.30
2022-11-06T01:50:59.733Z,43.30
2022-11-06T01:52:16.811Z,43.20
2022-11-06T01:53:29.430Z,43.30
2022-11-06T01:54:36.149Z,43.30
2022-11-06T01:55:45.044Z,43.30
2022-11-06T01:56:50.791Z,43.20
2022-11-06T01:58:00.784Z,43.30
2022-11-06T01:59:05.242Z,43.30
2022-11-06T02:00:26.140Z,43.30
2022-11-06T02:01:31.206Z,43.30
2022-11-06T02:02:39.359Z,43.30
2022-11-06T02:03:50.191Z,43.30
2022-11-06T02:04:53.052Z,43.30
2022-11-06T02:05:57.939Z,43.30
2022-11-06T02:07:04.091Z,43.30
2022-11-06T02:08:10.614Z,43.30
2022-11-06T02:09:18.736Z,43.30
2022-11-06T02:10:40.873Z,43.30
2022-11-06T02:12:18.169Z,43.30
2022-11-06T02:13:40.146Z,43.30
2022-11-06T02:15:12.197Z,43.80
2022-11-06T02:16:30.488Z,43.30
2022-11-06T02:17:53.505Z,43.30
2022-11-06T02:19:02.098Z,43.30
2022-11-06T02:20:16.087Z,43.30
2022-11-06T02:21:43.544Z,43.30
2022-11-06T02:23:22.350Z,43.30
2022-11-06T02:24:42.357Z,43.30
2022-11-06T02:26:34.512Z,43.30
2022-11-06T02:27:46.555Z,43.30
2022-11-06T02:29:01.270Z,43.30
2022-11-06T02:30:11.658Z,43.30
2022-11-06T02:31:22.961Z,43.30
2022-11-06T02:32:46.201Z,43.40
2022-11-06T02:33:59.794Z,43.30
2022-11-06T02:35:10.461Z,43.30
2022-11-06T02:37:39.439Z,43.30
2022-11-06T02:38:56.681Z,43.30
2022-11-06T02:40:03.882Z,43.20
2022-11-06T02:41:12.571Z,43.20
2022-11-06T02:42:35.003Z,43.20
2022-11-06T02:43:45.009Z,43.30
2022-11-06T02:44:52.696Z,43.30
2022-11-06T02:46:03.409Z,43.30
2022-11-06T02:47:13.060Z,43.30
2022-11-06T02:48:22.691Z,43.30
2022-11-06T02:49:53.096Z,43.30
2022-11-06T02:50:58.771Z,43.30
2022-11-06T02:52:13.040Z,43.30
2022-11-06T02:53:29.194Z,43.90
2022-11-06T02:54:40.052Z,43.30
2022-11-06T02:56:11.802Z,43.30
2022-11-06T02:57:20.275Z,43.20
2022-11-06T02:58:48.649Z,43.30
2022-11-06T03:00:06.509Z,43.20
2022-11-06T03:01:29.555Z,43.30
2022-11-06T03:03:00.296Z,43.30
2022-11-06T03:04:30.172Z,43.30
2022-11-06T03:05:58.226Z,43.20
2022-11-06T03:07:12.543Z,43.20
2022-11-06T03:08:50.620Z,43.30
2022-11-06T03:09:58.880Z,43.20
2022-11-06T03:11:06.510Z,43.20
2022-11-06T03:12:14.144Z,43.30
2022-11-06T03:13:49.176Z,43.30
2022-11-06T03:15:00.743Z,43.30
2022-11-06T03:16:19.076Z,43.30
2022-11-06T03:17:44.700Z,43.20
2022-11-06T03:19:03.037Z,43.20
2022-11-06T03:20:23.918Z,43.20
2022-11-06T03:21:53.075Z,43.20
2022-11-06T03:23:11.813Z,43.10
2022-11-06T03:24:33.697Z,43.20
2022-11-06T03:25:44.866Z,43.20
2022-11-06T03:26:54.418Z,43.20
2022-11-06T03:28:05.509Z,43.30
2022-11-06T03:29:36.469Z,43.20
2022-11-06T03:30:50.709Z,43.20
2022-11-06T03:32:09.290Z,43.20
2022-11-06T03:33:24.847Z,43.20
2022-11-06T03:34:39.552Z,43.20
2022-11-06T03:35:50.680Z,43.20
2022-11-06T03:37:05.657Z,43.20
2022-11-06T03:38:24.728Z,43.20
2022-11-06T03:39:35.342Z,43.20
2022-11-06T03:40:42.620Z,43.20
2022-11-06T03:42:02.781Z,43.20
2022-11-06T03:43:12.681Z,43.20
2022-11-06T03:44:19.905Z,43.20
2022-11-06T03:45:27.009Z,43.20
2022-11-06T03:46:44.781Z,43.20
2022-11-06T03:47:57.266Z,43.20
2022-11-06T03:49:13.762Z,43.20
2022-11-06T03:50:24.153Z,43.20
2022-11-06T03:51:43.877Z,43.20
2022-11-06T03:52:56.058Z,43.20
2022-11-06T03:54:16.970Z,43.20
2022-11-06T03:55:29.002Z,43.20
2022-11-06T03:56:50.903Z,43.20
2022-11-06T03:58:19.653Z,43.20
2022-11-06T03:59:35.129Z,43.20
2022-11-06T04:00:42.149Z,43.20
2022-11-06T04:01:48.133Z,43.20
2022-11-06T04:03:04.890Z,43.30
2022-11-06T04:04:13.349Z,43.20
2022-11-06T04:05:22.987Z,43.20
2022-11-06T04:06:51.476Z,43.20
2022-11-06T04:08:17.543Z,43.20
2022-11-06T04:09:43.049Z,43.20
2022-11-06T04:11:13.920Z,43.20
2022-11-06T04:12:41.257Z,43.20
2022-11-06T04:14:13.630Z,43.20
2022-11-06T04:15:20.682Z,43.20
2022-11-06T04:16:44.702Z,43.20
2022-11-06T04:17:51.693Z,43.20
2022-11-06T04:18:57.708Z,43.20
2022-11-06T04:20:07.109Z,43.20
2022-11-06T04:21:28.495Z,43.20
2022-11-06T04:22:51.389Z,43.20
2022-11-06T04:24:44.873Z,43.20
2022-11-06T04:26:20.772Z,43.20
2022-11-06T04:27:30.219Z,43.20
2022-11-06T04:29:18.641Z,43.20
2022-11-06T04:30:25.914Z,43.20
2022-11-06T04:32:03.039Z,43.20
2022-11-06T04:33:28.625Z,43.20
2022-11-06T04:34:42.105Z,43.20
2022-11-06T04:35:50.718Z,43.20
2022-11-06T04:37:57.914Z,43.20
2022-11-06T04:39:30.565Z,43.20
2022-11-06T04:41:04.100Z,43.20
2022-11-06T04:42:50.354Z,43.20
2022-11-06T04:44:07.493Z,43.20
2022-11-06T04:45:41.365Z,43.20
2022-11-06T04:46:50.970Z,43.10
2022-11-06T04:47:55.196Z,43.10
2022-11-06T04:49:06.630Z,43.10
2022-11-06T04:50:12.145Z,43.20
2022-11-06T04:51:23.794Z,43.10
2022-11-06T04:52:28.348Z,43.10
2022-11-06T04:53:33.323Z,43.20
2022-11-06T04:54:37.677Z,43.20
2022-11-06T04:55:55.793Z,43.10
2022-11-06T04:57:03.509Z,43.10
2022-11-06T04:58:23.291Z,43.10
2022-11-06T04:59:29.049Z,43.10
2022-11-06T05:00:39.179Z,43.10
2022-11-06T05:01:51.200Z,43.10
2022-11-06T05:02:56.359Z,43.10
2022-11-06T05:04:04.980Z,43.10
2022-11-06T05:05:08.441Z,43.10
2022-11-06T05:06:12.925Z,43.10
2022-11-06T05:07:21.225Z,43.10
2022-11-06T05:08:23.689Z,43.10
2022-11-06T05:09:26.608Z,43.10
2022-11-06T05:10:30.438Z,43.10
2022-11-06T05:11:35.534Z,43.10
2022-11-06T05:12:49.243Z,43.00
2022-11-06T05:15:14.554Z,43.10
2022-11-06T05:16:19.882Z,43.10
2022-11-06T05:17:22.767Z,43.10
2022-11-06T05:18:27.285Z,43.00
2022-11-06T05:19:30.350Z,43.10
2022-11-06T05:20:48.780Z,43.10
2022-11-06T05:22:15.523Z,43.10
2022-11-06T05:23:21.139Z,43.10
2022-11-06T05:24:24.019Z,43.10
2022-11-06T05:25:32.357Z,43.00
2022-11-06T05:26:39.761Z,43.00
2022-11-06T05:27:42.249Z,43.50
2022-11-06T05:28:46.112Z,43.00
2022-11-06T05:29:52.187Z,43.00
2022-11-06T05:30:54.759Z,43.00
2022-11-06T05:32:03.211Z,43.00
2022-11-06T05:33:07.992Z,42.90
2022-11-06T05:34:13.921Z,43.00
2022-11-06T05:35:17.233Z,43.00
2022-11-06T05:36:43.719Z,43.00
2022-11-06T05:37:50.462Z,43.00
2022-11-06T05:38:53.373Z,43.00
2022-11-06T05:40:10.449Z,43.00
2022-11-06T05:41:13.670Z,42.90
2022-11-06T05:42:19.735Z,43.00
2022-11-06T05:43:22.632Z,42.90
2022-11-06T05:44:28.938Z,42.90
2022-11-06T05:45:36.596Z,42.90
2022-11-06T05:46:54.854Z,43.00
2022-11-06T05:47:57.469Z,42.90
2022-11-06T05:49:01.855Z,42.90
2022-11-06T05:50:08.491Z,42.90
2022-11-06T05:51:13.494Z,42.90
2022-11-06T05:52:16.630Z,42.80
2022-11-06T05:53:20.423Z,42.80
2022-11-06T05:54:23.893Z,42.80
2022-11-06T05:55:41.397Z,42.70
2022-11-06T05:56:49.659Z,42.80
2022-11-06T05:57:52.831Z,42.80
2022-11-06T05:58:59.625Z,42.80
2022-11-06T06:00:04.555Z,42.80
2022-11-06T06:01:15.110Z,42.70
2022-11-06T06:02:17.995Z,42.80
2022-11-06T06:03:22.039Z,42.80
2022-11-06T06:04:25.711Z,42.70
2022-11-06T06:05:30.636Z,42.70
2022-11-06T06:06:40.794Z,42.80
2022-11-06T06:07:45.536Z,42.70
2022-11-06T06:08:50.553Z,42.70
2022-11-06T06:11:12.941Z,42.60
2022-11-06T06:12:16.815Z,42.80
2022-11-06T06:13:20.298Z,42.70
2022-11-06T06:14:23.827Z,42.80
2022-11-06T06:15:26.394Z,42.80
2022-11-06T06:16:29.350Z,42.80
2022-11-06T06:17:33.400Z,43.30
2022-11-06T06:18:35.922Z,42.70
2022-11-06T06:19:38.301Z,42.70
2022-11-06T06:20:40.729Z,42.60
2022-11-06T06:21:47.647Z,42.60
2022-11-06T06:22:59.468Z,42.60
2022-11-06T06:24:04.952Z,42.60
2022-11-06T06:25:17.369Z,42.60
2022-11-06T06:26:27.569Z,42.50
2022-11-06T06:27:32.481Z,42.60
2022-11-06T06:28:38.330Z,42.60
2022-11-06T06:29:42.533Z,42.50
2022-11-06T06:30:49.090Z,42.50
2022-11-06T06:32:03.712Z,42.60
2022-11-06T06:33:21.609Z,42.60
2022-11-06T06:34:24.549Z,42.60
2022-11-06T06:35:32.553Z,42.60
2022-11-06T06:36:35.565Z,42.50
2022-11-06T06:37:38.370Z,42.60
2022-11-06T06:38:40.861Z,42.50
2022-11-06T06:39:46.486Z,42.50
2022-11-06T06:40:49.612Z,42.50
2022-11-06T06:41:53.157Z,42.50
2022-11-06T06:43:01.570Z,42.50
2022-11-06T06:44:04.100Z,42.50
2022-11-06T06:45:07.120Z,42.50
2022-11-06T06:46:12.613Z,42.50
2022-11-06T06:47:31.889Z,42.50
2022-11-06T06:48:37.214Z,42.50
2022-11-06T06:49:40.208Z,43.00
2022-11-06T06:50:45.822Z,42.50
2022-11-06T06:51:53.116Z,42.50
2022-11-06T06:53:04.408Z,42.50
2022-11-06T06:54:08.681Z,42.50
2022-11-06T06:55:13.999Z,42.40
2022-11-06T06:56:17.745Z,42.40
2022-11-06T06:57:24.678Z,42.30
2022-11-06T06:58:29.731Z,42.30
2022-11-06T06:59:38.153Z,42.30
2022-11-06T07:00:42.187Z,42.40
2022-11-06T07:01:48.240Z,42.30
2022-11-06T07:02:54.766Z,42.30
2022-11-06T07:04:01.468Z,42.30
2022-11-06T07:05:09.685Z,42.40
2022-11-06T07:06:16.218Z,42.40
2022-11-06T07:07:19.621Z,42.30
2022-11-06T07:08:25.952Z,42.30
2022-11-06T07:10:51.116Z,42.30
2022-11-06T07:11:54.916Z,42.30
2022-11-06T07:13:04.200Z,42.30
2022-11-06T07:14:11.340Z,42.20
2022-11-06T07:15:15.014Z,42.30
2022-11-06T07:16:21.772Z,42.20
2022-11-06T07:17:31.941Z,42.30
2022-11-06T07:18:55.225Z,42.30
2022-11-06T07:19:58.830Z,42.20
2022-11-06T07:21:08.864Z,42.20
2022-11-06T07:22:17.759Z,42.20
2022-11-06T07:23:23.173Z,42.30
2022-11-06T07:24:28.046Z,42.20
2022-11-06T07:25:33.292Z,42.20
2022-11-06T07:26:36.293Z,42.20
2022-11-06T07:27:46.724Z,42.20
2022-11-06T07:28:51.433Z,42.20
2022-11-06T07:30:00.853Z,42.20
2022-11-06T07:31:06.262Z,42.20
2022-11-06T07:32:12.657Z,42.70
2022-11-06T07:33:18.761Z,42.10
2022-11-06T07:34:24.393Z,42.10
2022-11-06T07:35:30.148Z,42.10
2022-11-06T07:36:39.879Z,42.10
2022-11-06T07:37:45.185Z,42.20
2022-11-06T07:38:47.877Z,42.20
2022-11-06T07:39:50.582Z,42.10
2022-11-06T07:40:53.024Z,42.10
2022-11-06T07:41:59.691Z,42.00
2022-11-06T07:43:12.559Z,42.10
2022-11-06T07:44:19.716Z,42.00
2022-11-06T07:45:35.040Z,42.60
2022-11-06T07:46:39.438Z,42.00
2022-11-06T07:47:42.278Z,42.10
2022-11-06T07:48:47.625Z,42.10
2022-11-06T07:49:51.885Z,42.10
2022-11-06T07:51:00.031Z,42.80
2022-11-06T07:52:04.195Z,42.10
2022-11-06T07:53:08.679Z,42.00
2022-11-06T07:54:13.014Z,42.00
2022-11-06T07:55:16.389Z,42.00
2022-11-06T07:56:22.376Z,42.00
2022-11-06T07:57:28.642Z,41.90
2022-11-06T07:58:33.124Z,42.00
2022-11-06T07:59:39.146Z,42.00
2022-11-06T08:00:52.149Z,42.50
2022-11-06T08:01:54.625Z,41.90
2022-11-06T08:03:00.074Z,41.90
2022-11-06T08:04:03.481Z,41.90
2022-11-06T08:05:09.822Z,42.00
2022-11-06T08:06:14.809Z,42.00
2022-11-06T08:07:20.001Z,42.00
2022-11-06T08:08:26.283Z,42.00
2022-11-06T08:09:30.497Z,42.00
2022-11-06T08:10:33.426Z,42.00
2022-11-06T08:11:38.824Z,42.10
2022-11-06T08:12:42.620Z,42.00
2022-11-06T08:13:48.630Z,42.10
2022-11-06T08:14:51.784Z,42.10
2022-11-06T08:15:58.612Z,42.00
2022-11-06T08:17:03.887Z,42.00
2022-11-06T08:18:08.145Z,41.90
2022-11-06T08:19:12.153Z,41.90
2022-11-06T08:20:17.816Z,41.80
2022-11-06T08:21:20.695Z,41.90
2022-11-06T08:22:39.945Z,41.90
2022-11-06T08:23:43.624Z,41.80
2022-11-06T08:24:46.169Z,41.90
2022-11-06T08:25:49.182Z,41.90
2022-11-06T08:26:54.497Z,41.80
2022-11-06T08:28:12.637Z,41.70
2022-11-06T08:29:30.211Z,41.70
2022-11-06T08:30:35.878Z,41.70
2022-11-06T08:31:40.287Z,41.80
2022-11-06T08:32:42.708Z,41.80
2022-11-06T08:33:47.887Z,41.80
2022-11-06T08:34:53.746Z,41.90
2022-11-06T08:36:03.644Z,41.80
2022-11-06T08:37:10.653Z,41.70
2022-11-06T08:38:13.578Z,41.80
2022-11-06T08:39:16.408Z,41.80
2022-11-06T08:40:37.865Z,41.80
2022-11-06T08:41:44.957Z,41.70
2022-11-06T08:42:49.490Z,41.70
2022-11-06T08:43:53.149Z,41.70
2022-11-06T08:45:01.744Z,41.70
2022-11-06T08:46:10.639Z,41.70
2022-11-06T08:47:13.339Z,41.70
2022-11-06T08:48:17.945Z,41.70
2022-11-06T08:49:24.135Z,41.60
2022-11-06T08:50:33.566Z,41.60
2022-11-06T08:51:37.656Z,41.60
2022-11-06T08:52:40.446Z,41.60
2022-11-06T08:53:47.195Z,41.70
2022-11-06T08:54:51.321Z,41.70
2022-11-06T08:55:56.848Z,41.60
2022-11-06T08:57:00.718Z,41.50
2022-11-06T08:58:09.094Z,41.60
2022-11-06T08:59:12.517Z,41.60
2022-11-06T09:00:18.723Z,41.60
2022-11-06T09:01:23.969Z,41.60
2022-11-06T09:02:29.538Z,41.60
2022-11-06T09:03:35.020Z,41.70
2022-11-06T09:04:42.402Z,41.60
2022-11-06T09:05:47.660Z,41.70
2022-11-06T09:06:52.807Z,41.70
2022-11-06T09:08:01.884Z,41.60
2022-11-06T09:09:07.720Z,41.60
2022-11-06T09:10:12.745Z,41.50
2022-11-06T09:11:16.228Z,41.50
2022-11-06T09:12:19.961Z,41.60
2022-11-06T09:13:25.944Z,41.60
2022-11-06T09:14:32.166Z,41.60
2022-11-06T09:15:41.034Z,41.60
2022-11-06T09:16:43.867Z,41.60
2022-11-06T09:17:59.328Z,41.50
2022-11-06T09:19:02.527Z,41.50
2022-11-06T09:20:07.994Z,41.60
2022-11-06T09:21:15.919Z,41.60
2022-11-06T09:22:19.573Z,41.50
2022-11-06T09:23:28.047Z,41.40
2022-11-06T09:25:01.426Z,41.50
2022-11-06T09:25:58.246Z,41.50
2022-11-06T09:27:21.783Z,42.00
2022-11-06T09:28:25.885Z,41.40
2022-11-06T09:29:31.457Z,41.50
2022-11-06T09:30:38.352Z,41.40
2022-11-06T09:31:44.016Z,41.50
2022-11-06T09:32:54.761Z,41.40
2022-11-06T09:34:04.099Z,41.40
2022-11-06T09:35:06.803Z,41.40
2022-11-06T09:36:17.150Z,41.40
2022-11-06T09:37:21.060Z,41.40
2022-11-06T09:38:23.791Z,41.30
2022-11-06T09:39:27.624Z,41.40
2022-11-06T09:40:37.742Z,41.40
2022-11-06T09:42:01.890Z,41.30
2022-11-06T09:45:15.980Z,41.20
2022-11-06T09:48:05.711Z,41.20
2022-11-06T09:49:33.928Z,41.30
2022-11-06T09:50:46.277Z,41.20
2022-11-06T09:52:00.593Z,41.30
2022-11-06T09:53:15.980Z,41.30
2022-11-06T09:54:23.862Z,41.20
2022-11-06T09:55:52.189Z,41.30
2022-11-06T09:57:00.784Z,41.20
2022-11-06T09:58:13.335Z,41.10
2022-11-06T09:59:20.597Z,41.10
2022-11-06T10:00:26.203Z,41.20
2022-11-06T10:01:55.163Z,41.30
2022-11-06T10:03:30.814Z,41.20
2022-11-06T10:04:51.605Z,41.20
2022-11-06T10:05:55.390Z,41.10
2022-11-06T10:07:00.112Z,41.10
2022-11-06T10:08:33.148Z,41.20
2022-11-06T10:09:41.829Z,41.10
2022-11-06T10:11:12.104Z,41.20
2022-11-06T10:12:42.719Z,41.10
2022-11-06T10:14:20.283Z,41.10
2022-11-06T10:15:33.674Z,41.10
2022-11-06T10:17:27.978Z,41.20
2022-11-06T10:18:42.612Z,41.10
2022-11-06T10:19:56.036Z,41.20
2022-11-06T10:21:21.395Z,41.20
2022-11-06T10:22:42.128Z,41.00
2022-11-06T10:23:54.855Z,41.10
2022-11-06T10:25:20.147Z,41.10
2022-11-06T10:26:37.994Z,41.00
2022-11-06T10:28:03.899Z,41.20
2022-11-06T10:29:32.237Z,41.10
2022-11-06T10:31:11.188Z,41.00
2022-11-06T10:32:53.908Z,41.00
2022-11-06T10:34:29.159Z,41.00
2022-11-06T10:36:07.061Z,41.00
2022-11-06T10:37:22.390Z,40.90
2022-11-06T10:38:37.100Z,41.00
2022-11-06T10:39:43.637Z,40.90
2022-11-06T10:40:59.445Z,41.00
2022-11-06T10:42:35.157Z,41.00
2022-11-06T10:43:54.994Z,41.00
2022-11-06T10:45:16.303Z,41.00
2022-11-06T10:46:36.050Z,40.90
2022-11-06T10:47:54.992Z,40.90
2022-11-06T10:49:05.275Z,41.00
2022-11-06T10:50:16.030Z,41.00
2022-11-06T10:51:28.685Z,40.90
2022-11-06T10:52:54.775Z,41.00
2022-11-06T10:54:21.298Z,40.90
2022-11-06T10:55:56.695Z,40.90
2022-11-06T10:57:25.498Z,41.00
2022-11-06T10:58:34.143Z,40.80
2022-11-06T10:59:41.288Z,40.90
2022-11-06T11:00:47.995Z,40.90
2022-11-06T11:01:53.462Z,40.90
2022-11-06T11:03:06.481Z,40.90
2022-11-06T11:04:27.291Z,40.90
2022-11-06T11:07:21.554Z,40.80
2022-11-06T11:08:30.753Z,40.90
2022-11-06T11:09:37.990Z,40.90
2022-11-06T11:10:41.729Z,40.90
2022-11-06T11:11:51.018Z,40.80
2022-11-06T11:13:02.916Z,40.90
2022-11-06T11:14:15.676Z,40.80
2022-11-06T11:15:23.879Z,40.90
2022-11-06T11:16:34.653Z,40.80
2022-11-06T11:18:17.945Z,40.80
2022-11-06T11:19:47.557Z,40.80
2022-11-06T11:20:52.385Z,40.80
2022-11-06T11:21:59.592Z,40.80
2022-11-06T11:23:25.995Z,40.80
2022-11-06T11:24:29.278Z,40.70
2022-11-06T11:25:36.197Z,40.80
2022-11-06T11:26:52.731Z,40.70
2022-11-06T11:28:03.685Z,40.70
2022-11-06T11:29:28.079Z,40.70
2022-11-06T11:30:31.104Z,40.70
2022-11-06T11:31:44.629Z,40.70
2022-11-06T11:32:47.445Z,40.70
2022-11-06T11:33:59.970Z,40.70
2022-11-06T11:35:13.104Z,40.60
2022-11-06T11:36:15.578Z,40.70
2022-11-06T11:37:32.725Z,40.70
2022-11-06T11:38:42.954Z,40.70
2022-11-06T11:39:46.034Z,40.70
2022-11-06T11:40:52.749Z,40.80
2022-11-06T11:42:29.572Z,40.70
2022-11-06T11:43:35.540Z,40.50
2022-11-06T11:44:38.373Z,40.70
2022-11-06T11:45:44.305Z,40.70
2022-11-06T11:46:53.419Z,40.70
2022-11-06T11:48:13.540Z,40.70
2022-11-06T11:49:34.700Z,40.60
2022-11-06T11:50:39.294Z,40.60
2022-11-06T11:51:48.071Z,40.60
2022-11-06T11:52:58.497Z,40.60
2022-11-06T11:54:13.242Z,40.60
2022-11-06T11:55:18.741Z,40.60
2022-11-06T11:56:42.844Z,40.60
2022-11-06T11:57:51.277Z,40.70
2022-11-06T11:58:59.911Z,40.70
2022-11-06T12:00:06.662Z,40.60
2022-11-06T12:01:18.754Z,40.60
2022-11-06T12:03:08.430Z,40.50
2022-11-06T12:04:56.727Z,40.60
2022-11-06T12:06:13.620Z,40.50
2022-11-06T12:07:25.671Z,40.60
2022-11-06T12:08:28.414Z,40.60
2022-11-06T12:09:54.981Z,40.60
2022-11-06T12:11:06.962Z,40.50
2022-11-06T12:12:33.830Z,40.50
2022-11-06T12:13:46.902Z,40.50
2022-11-06T12:15:06.445Z,40.50
2022-11-06T12:16:20.022Z,40.40
2022-11-06T12:17:26.643Z,40.50
2022-11-06T12:18:58.724Z,40.50
2022-11-06T12:20:16.169Z,40.30
2022-11-06T12:21:39.693Z,40.40
2022-11-06T12:22:52.397Z,40.40
2022-11-06T12:24:10.746Z,40.50
2022-11-06T12:25:25.760Z,40.40
2022-11-06T12:28:03.958Z,40.40
2022-11-06T12:29:20.377Z,40.50
2022-11-06T12:30:34.506Z,40.50
2022-11-06T12:32:12.298Z,40.50
2022-11-06T12:33:27.389Z,40.30
2022-11-06T12:35:14.176Z,40.40
2022-11-06T12:36:19.980Z,40.30
2022-11-06T12:37:54.705Z,40.40
2022-11-06T12:39:20.194Z,40.40
2022-11-06T12:40:35.970Z,40.40
2022-11-06T12:41:48.570Z,40.40
2022-11-06T12:43:23.778Z,40.40
2022-11-06T12:44:28.780Z,40.40
2022-11-06T12:45:45.549Z,40.40
2022-11-06T12:49:30.307Z,40.20
2022-11-06T12:50:48.804Z,40.20
2022-11-06T12:52:11.828Z,41.00
2022-11-06T12:53:16.553Z,40.30
2022-11-06T12:54:34.874Z,40.40
2022-11-06T12:55:48.681Z,40.40
2022-11-06T12:57:13.727Z,40.40
2022-11-06T12:58:53.601Z,40.40
2022-11-06T12:59:58.181Z,40.30
2022-11-06T13:01:29.479Z,40.30
2022-11-06T13:02:55.390Z,40.20
2022-11-06T13:04:28.877Z,40.30
2022-11-06T13:06:35.722Z,40.30
2022-11-06T13:08:15.513Z,40.20
2022-11-06T13:09:29.910Z,40.90
2022-11-06T13:11:06.615Z,40.30
2022-11-06T13:12:49.840Z,40.30
2022-11-06T13:14:12.814Z,40.20
2022-11-06T13:15:31.937Z,40.20
2022-11-06T13:17:00.967Z,40.30
2022-11-06T13:18:35.306Z,40.20
2022-11-06T13:20:13.747Z,40.20
2022-11-06T13:21:21.989Z,40.10
2022-11-06T13:22:54.441Z,40.30
2022-11-06T13:24:18.495Z,40.20
2022-11-06T13:25:57.906Z,40.20
2022-11-06T13:27:24.372Z,40.20
2022-11-06T13:28:44.484Z,40.20
2022-11-06T13:29:50.523Z,40.20
2022-11-06T13:30:57.478Z,40.30
2022-11-06T13:32:11.232Z,40.30
2022-11-06T13:33:40.681Z,40.30
2022-11-06T13:34:47.645Z,40.20
2022-11-06T13:37:33.317Z,40.20
2022-11-06T13:38:40.733Z,40.20
2022-11-06T13:39:55.805Z,40.20
2022-11-06T13:41:09.038Z,40.30
2022-11-06T13:42:51.177Z,40.30
2022-11-06T13:44:01.991Z,40.30
2022-11-06T13:45:10.581Z,40.20
2022-11-06T13:46:33.057Z,40.20
2022-11-06T13:47:57.188Z,40.20
2022-11-06T13:49:20.846Z,40.20
2022-11-06T13:50:36.569Z,40.10
2022-11-06T13:52:00.016Z,40.20
2022-11-06T13:53:34.984Z,40.10
2022-11-06T13:55:19.659Z,40.10
2022-11-06T13:56:33.076Z,40.10
2022-11-06T13:57:48.792Z,40.10
2022-11-06T13:59:06.000Z,40.10
2022-11-06T14:00:26.912Z,40.10
2022-11-06T14:02:26.243Z,40.20
2022-11-06T14:03:50.052Z,40.10
2022-11-06T14:05:30.004Z,40.10
2022-11-06T14:06:36.600Z,40.10
2022-11-06T14:07:50.151Z,40.10
2022-11-06T14:09:05.127Z,40.20
2022-11-06T14:10:38.646Z,40.10
2022-11-06T14:11:48.003Z,40.10
2022-11-06T14:12:54.987Z,40.10
2022-11-06T14:14:10.123Z,40.10
2022-11-06T14:15:22.451Z,40.10
2022-11-06T14:18:02.743Z,40.10
2022-11-06T14:19:32.325Z,40.20
2022-11-06T14:20:38.642Z,40.10
2022-11-06T14:21:49.811Z,40.10
2022-11-06T14:23:33.701Z,40.10
2022-11-06T14:24:41.772Z,40.10
2022-11-06T14:26:11.138Z,40.70
2022-11-06T14:27:24.825Z,40.20
2022-11-06T14:28:51.772Z,40.10
2022-11-06T14:30:07.856Z,40.20
2022-11-06T14:31:50.520Z,40.20
2022-11-06T14:32:56.148Z,40.10
2022-11-06T14:34:07.384Z,40.20
2022-11-06T14:35:28.542Z,40.10
2022-11-06T14:36:43.886Z,40.00
2022-11-06T14:37:50.603Z,40.10
2022-11-06T14:38:58.510Z,40.10
2022-11-06T14:40:03.711Z,40.10
2022-11-06T14:41:33.874Z,40.10
2022-11-06T14:42:40.929Z,40.00
2022-11-06T14:43:50.977Z,40.00
2022-11-06T14:45:19.893Z,40.10
2022-11-06T14:46:23.809Z,40.10
2022-11-06T14:47:56.691Z,40.20
2022-11-06T14:49:22.224Z,40.10
2022-11-06T14:50:34.732Z,40.10
2022-11-06T14:51:42.139Z,40.10
2022-11-06T14:53:10.733Z,40.10
2022-11-06T14:54:24.792Z,40.10
2022-11-06T14:55:46.364Z,40.10
2022-11-06T14:56:58.691Z,40.10
2022-11-06T14:58:24.616Z,40.10
2022-11-06T14:59:39.799Z,40.00
2022-11-06T15:00:58.859Z,40.10
2022-11-06T15:02:23.952Z,40.10
2022-11-06T15:03:50.756Z,40.10
2022-11-06T15:05:09.317Z,40.10
2022-11-06T15:06:19.929Z,40.20
2022-11-06T15:08:04.552Z,40.10
2022-11-06T15:09:06.602Z,40.00
2022-11-06T15:10:50.089Z,40.10
2022-11-06T15:11:57.400Z,40.00
2022-11-06T15:13:11.034Z,40.00
2022-11-06T15:14:26.727Z,40.10
2022-11-06T15:15:33.793Z,40.10
2022-11-06T15:16:46.016Z,40.10
2022-11-06T15:18:00.639Z,40.10
2022-11-06T15:19:27.413Z,40.10
2022-11-06T15:20:45.128Z,40.10
2022-11-06T15:21:57.879Z,40.10
2022-11-06T15:23:08.310Z,40.10
2022-11-06T15:24:29.751Z,40.10
2022-11-06T15:25:34.967Z,40.10
2022-11-06T15:26:42.711Z,40.10
2022-11-06T15:28:13.404Z,40.10
2022-11-06T15:29:42.110Z,40.10
2022-11-06T15:31:04.147Z,40.10
2022-11-06T15:32:14.181Z,40.10
2022-11-06T15:33:28.414Z,40.10
2022-11-06T15:35:08.589Z,40.10
2022-11-06T15:36:28.815Z,40.00
2022-11-06T15:37:42.427Z,40.10
2022-11-06T15:38:59.339Z,40.20
2022-11-06T15:40:04.381Z,40.10
2022-11-06T15:41:18.253Z,40.20
2022-11-06T15:42:27.777Z,40.10
2022-11-06T15:43:33.750Z,40.10
2022-11-06T15:44:43.398Z,40.10
2022-11-06T15:45:45.825Z,40.10
2022-11-06T15:46:58.179Z,40.10
2022-11-06T15:48:17.827Z,40.20
2022-11-06T15:49:25.687Z,40.10
2022-11-06T15:50:35.544Z,40.10
2022-11-06T15:51:49.281Z,40.10
2022-11-06T15:52:57.189Z,40.10
2022-11-06T15:54:01.167Z,40.20
2022-11-06T15:55:06.905Z,40.10
2022-11-06T15:56:09.775Z,40.10
2022-11-06T15:57:27.716Z,40.10
2022-11-06T15:58:37.740Z,40.00
2022-11-06T15:59:47.222Z,40.10